Terminal Aerodrome Forecast
Issued by NWS Louisville, KY

Home | Current Version | Previous Version | Text Only | Print | Product List | Glossary On
Versions: 1 2 3 4 5 6 7 8 9 10 11 12 13 14 15
000
FTUS43 KLMK 272336
TAFBWG
TAF
KBWG 272336Z 2800/2824 17006KT P6SM SCT100 BKN250
     FM281500 18010KT P6SM SCT040 BKN150
     FM281800 19012KT P6SM VCSH SCT040 BKN100=

USA.gov is the U.S. government's official web portal to all federal, state and local government web resources and services.